Not logged in to UKVirtual
Contact Us | Support Us

Flight Report Information

Report #24936

General Information

Here is some general data for this flight report.

Flight FXI0423
Member Ross Gunn
Date 21st March 2017
Aircraft Bombardier Dash 8
Flight Time 02:56:21
Network VATSIM
Status Accepted

Routing Information

Here is some information about the route taken on this flight.

Departure Reykjavik Airport (BIRK)
Arrival Nuuk Airport (BGGH)
KFV GIMLI DA 6449N

Report Comments

Comments can be left on reports to provide feedback to members, or to describe the context of a flight.

Ross Gunn (UNI891)

Pilot of this Report

i am rather impressed with that giving this is the metar: BGGH 210250Z AUTO 15034G47KT 0300NDV +SN FEW006/// BKN032/// M04/M07 Q1004

Please report any inappropriate comments to a member of staff.

Flight Log

A detailed flight log is available from the UKVirtual Flight Tracker. Click the button below to expand it.

Expand Flight Log